sensor_id;sensor_type;location;lat;lon;timestamp;P1;durP1;ratioP1;P2;durP2;ratioP2
37267;SDS011;23154;52.542;13.362;2024-01-07T00:00:01;18.55;;;4.82;;
37267;SDS011;23154;52.542;13.362;2024-01-07T00:02:28;29.35;;;9.38;;
37267;SDS011;23154;52.542;13.362;2024-01-07T00:04:56;14.57;;;4.80;;
37267;SDS011;23154;52.542;13.362;2024-01-07T00:07:22;14.98;;;4.43;;
37267;SDS011;23154;52.542;13.362;2024-01-07T00:09:48;15.60;;;4.90;;
37267;SDS011;23154;52.542;13.362;2024-01-07T00:12:14;16.80;;;4.78;;
37267;SDS011;23154;52.542;13.362;2024-01-07T00:14:41;18.30;;;5.40;;
37267;SDS011;23154;52.542;13.362;2024-01-07T00:17:07;18.30;;;6.18;;
37267;SDS011;23154;52.542;13.362;2024-01-07T00:19:33;19.17;;;5.72;;
37267;SDS011;23154;52.542;13.362;2024-01-07T00:22:00;15.27;;;4.93;;
37267;SDS011;23154;52.542;13.362;2024-01-07T00:24:26;19.35;;;5.22;;
37267;SDS011;23154;52.542;13.362;2024-01-07T00:26:53;17.20;;;5.43;;
37267;SDS011;23154;52.542;13.362;2024-01-07T00:29:20;17.15;;;4.93;;
37267;SDS011;23154;52.542;13.362;2024-01-07T00:31:46;16.83;;;5.25;;
37267;SDS011;23154;52.542;13.362;2024-01-07T00:34:12;15.27;;;4.90;;
37267;SDS011;23154;52.542;13.362;2024-01-07T00:36:38;18.92;;;4.90;;
37267;SDS011;23154;52.542;13.362;2024-01-07T00:39:04;15.82;;;4.82;;
37267;SDS011;23154;52.542;13.362;2024-01-07T00:41:30;17.88;;;4.72;;
37267;SDS011;23154;52.542;13.362;2024-01-07T00:43:56;16.45;;;4.70;;
37267;SDS011;23154;52.542;13.362;2024-01-07T00:46:22;16.25;;;4.35;;
37267;SDS011;23154;52.542;13.362;2024-01-07T00:48:48;14.63;;;4.35;;
37267;SDS011;23154;52.542;13.362;2024-01-07T00:51:14;12.05;;;4.05;;
37267;SDS011;23154;52.542;13.362;2024-01-07T00:53:40;14.40;;;4.53;;
37267;SDS011;23154;52.542;13.362;2024-01-07T00:56:06;13.50;;;4.47;;
37267;SDS011;23154;52.542;13.362;2024-01-07T00:58:32;15.73;;;4.70;;
37267;SDS011;23154;52.542;13.362;2024-01-07T01:00:58;12.50;;;4.22;;
37267;SDS011;23154;52.542;13.362;2024-01-07T01:03:25;12.68;;;4.50;;
37267;SDS011;23154;52.542;13.362;2024-01-07T01:05:51;13.20;;;4.32;;
37267;SDS011;23154;52.542;13.362;2024-01-07T01:08:17;11.93;;;4.10;;
37267;SDS011;23154;52.542;13.362;2024-01-07T01:10:43;14.38;;;4.30;;
37267;SDS011;23154;52.542;13.362;2024-01-07T01:13:09;12.70;;;4.40;;
37267;SDS011;23154;52.542;13.362;2024-01-07T01:15:35;14.07;;;4.57;;
37267;SDS011;23154;52.542;13.362;2024-01-07T01:18:01;12.85;;;4.25;;
37267;SDS011;23154;52.542;13.362;2024-01-07T01:20:28;11.93;;;4.30;;
37267;SDS011;23154;52.542;13.362;2024-01-07T01:22:54;14.15;;;4.20;;
37267;SDS011;23154;52.542;13.362;2024-01-07T01:25:20;12.93;;;4.40;;
37267;SDS011;23154;52.542;13.362;2024-01-07T01:27:46;12.70;;;3.83;;
37267;SDS011;23154;52.542;13.362;2024-01-07T01:30:12;16.55;;;4.70;;
37267;SDS011;23154;52.542;13.362;2024-01-07T01:32:38;12.73;;;4.40;;
37267;SDS011;23154;52.542;13.362;2024-01-07T01:35:05;13.57;;;4.57;;
37267;SDS011;23154;52.542;13.362;2024-01-07T01:37:31;13.73;;;4.57;;
37267;SDS011;23154;52.542;13.362;2024-01-07T01:40:00;15.15;;;4.63;;
37267;SDS011;23154;52.542;13.362;2024-01-07T01:42:26;17.35;;;4.68;;
37267;SDS011;23154;52.542;13.362;2024-01-07T01:44:52;15.50;;;4.85;;
37267;SDS011;23154;52.542;13.362;2024-01-07T01:47:22;14.77;;;4.45;;
37267;SDS011;23154;52.542;13.362;2024-01-07T01:49:48;11.80;;;3.97;;
37267;SDS011;23154;52.542;13.362;2024-01-07T01:52:14;16.80;;;5.10;;
37267;SDS011;23154;52.542;13.362;2024-01-07T01:54:40;13.85;;;4.65;;
37267;SDS011;23154;52.542;13.362;2024-01-07T01:57:06;13.10;;;4.35;;
37267;SDS011;23154;52.542;13.362;2024-01-07T01:59:33;15.30;;;4.68;;
37267;SDS011;23154;52.542;13.362;2024-01-07T02:02:00;13.63;;;4.85;;
37267;SDS011;23154;52.542;13.362;2024-01-07T02:04:26;12.23;;;4.10;;
37267;SDS011;23154;52.542;13.362;2024-01-07T02:07:00;16.38;;;5.03;;
37267;SDS011;23154;52.542;13.362;2024-01-07T02:09:26;7.95;;;3.42;;
37267;SDS011;23154;52.542;13.362;2024-01-07T02:14:27;12.10;;;3.85;;
37267;SDS011;23154;52.542;13.362;2024-01-07T02:16:53;13.18;;;4.28;;
37267;SDS011;23154;52.542;13.362;2024-01-07T02:19:19;11.82;;;3.97;;
37267;SDS011;23154;52.542;13.362;2024-01-07T02:21:46;12.32;;;4.30;;
37267;SDS011;23154;52.542;13.362;2024-01-07T02:24:15;10.10;;;3.92;;
37267;SDS011;23154;52.542;13.362;2024-01-07T02:26:42;12.27;;;4.30;;
37267;SDS011;23154;52.542;13.362;2024-01-07T02:29:08;15.07;;;4.30;;
37267;SDS011;23154;52.542;13.362;2024-01-07T02:31:34;10.38;;;3.88;;
37267;SDS011;23154;52.542;13.362;2024-01-07T02:34:00;12.30;;;4.38;;
37267;SDS011;23154;52.542;13.362;2024-01-07T02:36:26;12.65;;;4.60;;
37267;SDS011;23154;52.542;13.362;2024-01-07T02:38:52;12.90;;;4.40;;
37267;SDS011;23154;52.542;13.362;2024-01-07T02:41:18;10.45;;;3.95;;
37267;SDS011;23154;52.542;13.362;2024-01-07T02:43:46;13.45;;;4.03;;
37267;SDS011;23154;52.542;13.362;2024-01-07T02:46:12;13.10;;;4.13;;
37267;SDS011;23154;52.542;13.362;2024-01-07T02:48:39;10.85;;;3.80;;
37267;SDS011;23154;52.542;13.362;2024-01-07T02:51:06;13.30;;;3.72;;
37267;SDS011;23154;52.542;13.362;2024-01-07T02:53:32;10.65;;;3.92;;
37267;SDS011;23154;52.542;13.362;2024-01-07T02:55:59;12.55;;;3.80;;
37267;SDS011;23154;52.542;13.362;2024-01-07T02:58:26;11.70;;;3.90;;
37267;SDS011;23154;52.542;13.362;2024-01-07T03:00:52;10.70;;;3.80;;
37267;SDS011;23154;52.542;13.362;2024-01-07T03:03:18;9.80;;;3.50;;
37267;SDS011;23154;52.542;13.362;2024-01-07T03:05:44;10.30;;;4.03;;
37267;SDS011;23154;52.542;13.362;2024-01-07T03:08:10;12.52;;;3.90;;
37267;SDS011;23154;52.542;13.362;2024-01-07T03:10:36;11.48;;;3.60;;
37267;SDS011;23154;52.542;13.362;2024-01-07T03:13:02;11.50;;;3.40;;
37267;SDS011;23154;52.542;13.362;2024-01-07T03:15:28;10.65;;;3.83;;
37267;SDS011;23154;52.542;13.362;2024-01-07T03:17:54;9.88;;;3.35;;
37267;SDS011;23154;52.542;13.362;2024-01-07T03:20:20;11.98;;;3.55;;
37267;SDS011;23154;52.542;13.362;2024-01-07T03:22:46;9.35;;;3.63;;
37267;SDS011;23154;52.542;13.362;2024-01-07T03:25:12;13.02;;;3.70;;
37267;SDS011;23154;52.542;13.362;2024-01-07T03:27:38;11.77;;;3.72;;
37267;SDS011;23154;52.542;13.362;2024-01-07T03:30:04;10.30;;;3.80;;
37267;SDS011;23154;52.542;13.362;2024-01-07T03:32:31;9.00;;;3.50;;
37267;SDS011;23154;52.542;13.362;2024-01-07T03:34:57;10.73;;;3.83;;
37267;SDS011;23154;52.542;13.362;2024-01-07T03:37:23;9.35;;;3.63;;
37267;SDS011;23154;52.542;13.362;2024-01-07T03:39:49;11.50;;;3.97;;
37267;SDS011;23154;52.542;13.362;2024-01-07T03:42:15;11.88;;;3.50;;
37267;SDS011;23154;52.542;13.362;2024-01-07T03:44:41;9.70;;;3.70;;
37267;SDS011;23154;52.542;13.362;2024-01-07T03:47:07;10.93;;;3.60;;
37267;SDS011;23154;52.542;13.362;2024-01-07T03:49:33;10.80;;;3.42;;
37267;SDS011;23154;52.542;13.362;2024-01-07T03:51:59;10.60;;;3.72;;
37267;SDS011;23154;52.542;13.362;2024-01-07T03:54:25;14.95;;;3.92;;
37267;SDS011;23154;52.542;13.362;2024-01-07T03:56:51;12.18;;;4.13;;
37267;SDS011;23154;52.542;13.362;2024-01-07T03:59:17;9.63;;;3.97;;
37267;SDS011;23154;52.542;13.362;2024-01-07T04:01:43;12.60;;;3.83;;
37267;SDS011;23154;52.542;13.362;2024-01-07T04:04:09;11.43;;;3.55;;
37267;SDS011;23154;52.542;13.362;2024-01-07T04:06:35;11.30;;;3.90;;
37267;SDS011;23154;52.542;13.362;2024-01-07T04:09:01;10.23;;;3.97;;
37267;SDS011;23154;52.542;13.362;2024-01-07T04:11:28;12.82;;;3.78;;
37267;SDS011;23154;52.542;13.362;2024-01-07T04:13:54;8.80;;;3.63;;
37267;SDS011;23154;52.542;13.362;2024-01-07T04:16:21;9.57;;;3.42;;
37267;SDS011;23154;52.542;13.362;2024-01-07T04:18:47;11.52;;;3.50;;
37267;SDS011;23154;52.542;13.362;2024-01-07T04:21:13;12.80;;;3.85;;
37267;SDS011;23154;52.542;13.362;2024-01-07T04:23:39;9.63;;;3.65;;
37267;SDS011;23154;52.542;13.362;2024-01-07T04:26:06;12.45;;;3.72;;
37267;SDS011;23154;52.542;13.362;2024-01-07T04:28:32;11.20;;;3.47;;
37267;SDS011;23154;52.542;13.362;2024-01-07T04:30:58;11.32;;;3.88;;
37267;SDS011;23154;52.542;13.362;2024-01-07T04:33:24;10.25;;;3.65;;
37267;SDS011;23154;52.542;13.362;2024-01-07T04:35:50;10.10;;;3.75;;
37267;SDS011;23154;52.542;13.362;2024-01-07T04:38:16;11.10;;;3.60;;
37267;SDS011;23154;52.542;13.362;2024-01-07T04:40:42;10.30;;;4.13;;
37267;SDS011;23154;52.542;13.362;2024-01-07T04:43:08;8.55;;;3.63;;
37267;SDS011;23154;52.542;13.362;2024-01-07T04:45:34;10.57;;;3.90;;
37267;SDS011;23154;52.542;13.362;2024-01-07T04:48:00;10.05;;;3.70;;
37267;SDS011;23154;52.542;13.362;2024-01-07T04:50:26;11.25;;;3.90;;
37267;SDS011;23154;52.542;13.362;2024-01-07T04:52:52;12.95;;;4.15;;
37267;SDS011;23154;52.542;13.362;2024-01-07T04:55:18;12.45;;;4.10;;
37267;SDS011;23154;52.542;13.362;2024-01-07T04:57:44;8.77;;;3.78;;
37267;SDS011;23154;52.542;13.362;2024-01-07T05:00:10;10.30;;;4.10;;
37267;SDS011;23154;52.542;13.362;2024-01-07T05:02:36;12.05;;;4.43;;
37267;SDS011;23154;52.542;13.362;2024-01-07T05:05:02;11.90;;;3.75;;
37267;SDS011;23154;52.542;13.362;2024-01-07T05:07:28;9.45;;;4.10;;
37267;SDS011;23154;52.542;13.362;2024-01-07T05:09:54;12.30;;;4.10;;
37267;SDS011;23154;52.542;13.362;2024-01-07T05:12:20;13.52;;;3.78;;
37267;SDS011;23154;52.542;13.362;2024-01-07T05:14:46;10.48;;;3.90;;
37267;SDS011;23154;52.542;13.362;2024-01-07T05:17:12;9.05;;;3.72;;
37267;SDS011;23154;52.542;13.362;2024-01-07T05:19:42;9.95;;;3.90;;
37267;SDS011;23154;52.542;13.362;2024-01-07T05:22:08;10.93;;;3.75;;
37267;SDS011;23154;52.542;13.362;2024-01-07T05:24:36;11.90;;;4.10;;
37267;SDS011;23154;52.542;13.362;2024-01-07T05:27:03;11.85;;;4.00;;
37267;SDS011;23154;52.542;13.362;2024-01-07T05:29:29;12.00;;;4.15;;
37267;SDS011;23154;52.542;13.362;2024-01-07T05:31:55;12.43;;;4.10;;
37267;SDS011;23154;52.542;13.362;2024-01-07T05:34:21;10.52;;;3.88;;
37267;SDS011;23154;52.542;13.362;2024-01-07T05:36:47;11.57;;;4.22;;
37267;SDS011;23154;52.542;13.362;2024-01-07T05:39:12;12.52;;;4.00;;
37267;SDS011;23154;52.542;13.362;2024-01-07T05:41:39;10.77;;;4.13;;
37267;SDS011;23154;52.542;13.362;2024-01-07T05:44:08;11.98;;;4.30;;
37267;SDS011;23154;52.542;13.362;2024-01-07T05:46:38;12.38;;;4.03;;
37267;SDS011;23154;52.542;13.362;2024-01-07T05:49:08;15.07;;;4.47;;
37267;SDS011;23154;52.542;13.362;2024-01-07T05:51:38;14.38;;;4.90;;
37267;SDS011;23154;52.542;13.362;2024-01-07T05:54:04;11.50;;;4.65;;
37267;SDS011;23154;52.542;13.362;2024-01-07T05:56:30;11.23;;;4.50;;
37267;SDS011;23154;52.542;13.362;2024-01-07T05:58:56;15.02;;;4.53;;
37267;SDS011;23154;52.542;13.362;2024-01-07T06:01:22;13.45;;;4.93;;
37267;SDS011;23154;52.542;13.362;2024-01-07T06:03:48;12.75;;;4.40;;
37267;SDS011;23154;52.542;13.362;2024-01-07T06:06:14;12.48;;;4.40;;
37267;SDS011;23154;52.542;13.362;2024-01-07T06:08:43;11.40;;;4.05;;
37267;SDS011;23154;52.542;13.362;2024-01-07T06:11:09;12.90;;;4.70;;
37267;SDS011;23154;52.542;13.362;2024-01-07T06:13:37;13.50;;;4.50;;
37267;SDS011;23154;52.542;13.362;2024-01-07T06:16:03;12.20;;;4.22;;
37267;SDS011;23154;52.542;13.362;2024-01-07T06:18:29;14.38;;;4.90;;
37267;SDS011;23154;52.542;13.362;2024-01-07T06:20:55;14.93;;;4.80;;
37267;SDS011;23154;52.542;13.362;2024-01-07T06:23:21;13.50;;;4.60;;
37267;SDS011;23154;52.542;13.362;2024-01-07T06:25:47;12.93;;;4.70;;
37267;SDS011;23154;52.542;13.362;2024-01-07T06:28:13;13.07;;;4.65;;
37267;SDS011;23154;52.542;13.362;2024-01-07T06:30:39;12.82;;;4.28;;
37267;SDS011;23154;52.542;13.362;2024-01-07T06:33:05;13.68;;;4.45;;
37267;SDS011;23154;52.542;13.362;2024-01-07T06:35:31;11.60;;;4.70;;
37267;SDS011;23154;52.542;13.362;2024-01-07T06:37:57;14.63;;;5.00;;
37267;SDS011;23154;52.542;13.362;2024-01-07T06:40:23;13.00;;;4.47;;
37267;SDS011;23154;52.542;13.362;2024-01-07T06:42:49;11.75;;;4.40;;
37267;SDS011;23154;52.542;13.362;2024-01-07T06:45:16;12.18;;;4.60;;
37267;SDS011;23154;52.542;13.362;2024-01-07T06:47:42;12.55;;;4.75;;
37267;SDS011;23154;52.542;13.362;2024-01-07T06:50:09;12.45;;;4.68;;
37267;SDS011;23154;52.542;13.362;2024-01-07T06:52:36;15.00;;;5.25;;
37267;SDS011;23154;52.542;13.362;2024-01-07T06:55:02;14.35;;;5.03;;
37267;SDS011;23154;52.542;13.362;2024-01-07T06:57:28;12.13;;;4.32;;
37267;SDS011;23154;52.542;13.362;2024-01-07T06:59:54;13.73;;;4.70;;
37267;SDS011;23154;52.542;13.362;2024-01-07T07:02:20;13.20;;;4.65;;
37267;SDS011;23154;52.542;13.362;2024-01-07T07:04:46;11.60;;;4.50;;
37267;SDS011;23154;52.542;13.362;2024-01-07T07:07:16;13.85;;;4.93;;
37267;SDS011;23154;52.542;13.362;2024-01-07T07:09:42;13.60;;;4.63;;
37267;SDS011;23154;52.542;13.362;2024-01-07T07:12:08;12.40;;;4.15;;
37267;SDS011;23154;52.542;13.362;2024-01-07T07:14:34;12.68;;;4.40;;
37267;SDS011;23154;52.542;13.362;2024-01-07T07:17:00;12.07;;;4.15;;
37267;SDS011;23154;52.542;13.362;2024-01-07T07:19:26;14.98;;;5.20;;
37267;SDS011;23154;52.542;13.362;2024-01-07T07:21:53;12.32;;;4.72;;
37267;SDS011;23154;52.542;13.362;2024-01-07T07:24:19;14.93;;;4.45;;
37267;SDS011;23154;52.542;13.362;2024-01-07T07:26:45;12.43;;;4.30;;
37267;SDS011;23154;52.542;13.362;2024-01-07T07:29:11;10.85;;;4.25;;
37267;SDS011;23154;52.542;13.362;2024-01-07T07:31:37;10.93;;;4.20;;
37267;SDS011;23154;52.542;13.362;2024-01-07T07:34:04;12.68;;;4.50;;
37267;SDS011;23154;52.542;13.362;2024-01-07T07:36:30;12.68;;;4.55;;
37267;SDS011;23154;52.542;13.362;2024-01-07T07:38:56;13.55;;;4.45;;
37267;SDS011;23154;52.542;13.362;2024-01-07T07:41:22;13.27;;;4.80;;
37267;SDS011;23154;52.542;13.362;2024-01-07T07:43:48;11.73;;;4.28;;
37267;SDS011;23154;52.542;13.362;2024-01-07T07:46:14;10.43;;;4.25;;
37267;SDS011;23154;52.542;13.362;2024-01-07T07:48:41;12.80;;;4.55;;
37267;SDS011;23154;52.542;13.362;2024-01-07T07:51:07;10.95;;;4.38;;
37267;SDS011;23154;52.542;13.362;2024-01-07T07:53:33;10.75;;;3.85;;
37267;SDS011;23154;52.542;13.362;2024-01-07T07:56:00;10.32;;;4.15;;
37267;SDS011;23154;52.542;13.362;2024-01-07T07:58:26;11.55;;;4.32;;
37267;SDS011;23154;52.542;13.362;2024-01-07T08:00:52;12.25;;;4.32;;
37267;SDS011;23154;52.542;13.362;2024-01-07T08:03:18;12.15;;;4.75;;
37267;SDS011;23154;52.542;13.362;2024-01-07T08:05:44;14.52;;;4.95;;
37267;SDS011;23154;52.542;13.362;2024-01-07T08:08:10;15.73;;;5.60;;
37267;SDS011;23154;52.542;13.362;2024-01-07T08:10:36;17.40;;;5.57;;
37267;SDS011;23154;52.542;13.362;2024-01-07T08:13:02;14.57;;;5.10;;
37267;SDS011;23154;52.542;13.362;2024-01-07T08:15:28;13.88;;;5.13;;
37267;SDS011;23154;52.542;13.362;2024-01-07T08:17:54;13.80;;;5.38;;
37267;SDS011;23154;52.542;13.362;2024-01-07T08:20:20;15.18;;;5.10;;
37267;SDS011;23154;52.542;13.362;2024-01-07T08:22:46;13.23;;;4.63;;
37267;SDS011;23154;52.542;13.362;2024-01-07T08:25:13;13.82;;;4.53;;
37267;SDS011;23154;52.542;13.362;2024-01-07T08:27:40;12.75;;;4.60;;
37267;SDS011;23154;52.542;13.362;2024-01-07T08:30:06;13.38;;;4.82;;
37267;SDS011;23154;52.542;13.362;2024-01-07T08:32:33;12.13;;;4.80;;
37267;SDS011;23154;52.542;13.362;2024-01-07T08:35:00;15.02;;;5.30;;
37267;SDS011;23154;52.542;13.362;2024-01-07T08:37:26;12.95;;;4.60;;
37267;SDS011;23154;52.542;13.362;2024-01-07T08:39:52;13.25;;;5.45;;
37267;SDS011;23154;52.542;13.362;2024-01-07T08:42:19;16.88;;;5.22;;
37267;SDS011;23154;52.542;13.362;2024-01-07T08:44:45;16.92;;;5.15;;
37267;SDS011;23154;52.542;13.362;2024-01-07T08:47:12;14.88;;;5.13;;
37267;SDS011;23154;52.542;13.362;2024-01-07T08:49:38;14.65;;;5.10;;
37267;SDS011;23154;52.542;13.362;2024-01-07T08:52:04;14.02;;;5.90;;
37267;SDS011;23154;52.542;13.362;2024-01-07T08:54:30;14.02;;;5.25;;
37267;SDS011;23154;52.542;13.362;2024-01-07T08:56:58;13.50;;;5.68;;
37267;SDS011;23154;52.542;13.362;2024-01-07T08:59:24;15.10;;;5.65;;
37267;SDS011;23154;52.542;13.362;2024-01-07T09:01:50;17.20;;;5.60;;
37267;SDS011;23154;52.542;13.362;2024-01-07T09:04:16;15.90;;;5.75;;
37267;SDS011;23154;52.542;13.362;2024-01-07T09:06:43;13.02;;;5.57;;
37267;SDS011;23154;52.542;13.362;2024-01-07T09:09:09;14.13;;;4.80;;
37267;SDS011;23154;52.542;13.362;2024-01-07T09:11:35;15.07;;;5.30;;
37267;SDS011;23154;52.542;13.362;2024-01-07T09:14:02;14.55;;;5.50;;
37267;SDS011;23154;52.542;13.362;2024-01-07T09:16:28;13.85;;;5.43;;
37267;SDS011;23154;52.542;13.362;2024-01-07T09:18:54;13.85;;;5.18;;
37267;SDS011;23154;52.542;13.362;2024-01-07T09:21:21;15.95;;;5.13;;
37267;SDS011;23154;52.542;13.362;2024-01-07T09:23:48;15.82;;;5.68;;
37267;SDS011;23154;52.542;13.362;2024-01-07T09:26:14;13.27;;;4.70;;
37267;SDS011;23154;52.542;13.362;2024-01-07T09:28:40;15.13;;;5.07;;
37267;SDS011;23154;52.542;13.362;2024-01-07T09:31:07;16.23;;;6.00;;
37267;SDS011;23154;52.542;13.362;2024-01-07T09:33:33;17.08;;;5.13;;
37267;SDS011;23154;52.542;13.362;2024-01-07T09:35:59;15.60;;;5.68;;
37267;SDS011;23154;52.542;13.362;2024-01-07T09:38:25;14.85;;;5.03;;
37267;SDS011;23154;52.542;13.362;2024-01-07T09:40:51;15.30;;;5.30;;
37267;SDS011;23154;52.542;13.362;2024-01-07T09:43:20;15.57;;;5.30;;
37267;SDS011;23154;52.542;13.362;2024-01-07T09:45:47;15.77;;;5.68;;
37267;SDS011;23154;52.542;13.362;2024-01-07T09:48:13;15.93;;;5.32;;
37267;SDS011;23154;52.542;13.362;2024-01-07T09:50:40;16.80;;;5.72;;
37267;SDS011;23154;52.542;13.362;2024-01-07T09:53:06;18.65;;;5.88;;
37267;SDS011;23154;52.542;13.362;2024-01-07T09:55:33;13.70;;;4.88;;
37267;SDS011;23154;52.542;13.362;2024-01-07T09:58:00;17.75;;;5.50;;
37267;SDS011;23154;52.542;13.362;2024-01-07T10:00:27;15.95;;;5.25;;
37267;SDS011;23154;52.542;13.362;2024-01-07T10:02:54;16.05;;;5.20;;
37267;SDS011;23154;52.542;13.362;2024-01-07T10:05:20;16.88;;;5.65;;
37267;SDS011;23154;52.542;13.362;2024-01-07T10:07:46;14.25;;;5.22;;
37267;SDS011;23154;52.542;13.362;2024-01-07T10:10:16;13.18;;;4.88;;
37267;SDS011;23154;52.542;13.362;2024-01-07T10:12:43;17.02;;;5.65;;
37267;SDS011;23154;52.542;13.362;2024-01-07T10:15:11;15.77;;;5.43;;
37267;SDS011;23154;52.542;13.362;2024-01-07T10:17:39;16.33;;;5.75;;
37267;SDS011;23154;52.542;13.362;2024-01-07T10:20:05;18.65;;;5.65;;
37267;SDS011;23154;52.542;13.362;2024-01-07T10:22:34;15.93;;;5.57;;
37267;SDS011;23154;52.542;13.362;2024-01-07T10:25:01;15.52;;;4.95;;
37267;SDS011;23154;52.542;13.362;2024-01-07T10:27:27;17.42;;;6.18;;
37267;SDS011;23154;52.542;13.362;2024-01-07T10:29:53;17.63;;;5.40;;
37267;SDS011;23154;52.542;13.362;2024-01-07T10:32:20;17.80;;;6.03;;
37267;SDS011;23154;52.542;13.362;2024-01-07T10:34:46;15.35;;;5.68;;
37267;SDS011;23154;52.542;13.362;2024-01-07T10:37:12;15.85;;;6.15;;
37267;SDS011;23154;52.542;13.362;2024-01-07T10:39:38;18.88;;;6.68;;
37267;SDS011;23154;52.542;13.362;2024-01-07T10:42:04;16.15;;;6.05;;
37267;SDS011;23154;52.542;13.362;2024-01-07T10:44:31;16.23;;;5.72;;
37267;SDS011;23154;52.542;13.362;2024-01-07T10:46:58;14.45;;;5.45;;
37267;SDS011;23154;52.542;13.362;2024-01-07T10:49:24;15.20;;;5.40;;
37267;SDS011;23154;52.542;13.362;2024-01-07T10:52:03;17.73;;;5.18;;
37267;SDS011;23154;52.542;13.362;2024-01-07T10:54:30;20.77;;;6.43;;
37267;SDS011;23154;52.542;13.362;2024-01-07T10:56:58;30.35;;;11.77;;
37267;SDS011;23154;52.542;13.362;2024-01-07T10:59:28;18.05;;;6.32;;
37267;SDS011;23154;52.542;13.362;2024-01-07T11:01:55;13.05;;;5.03;;
37267;SDS011;23154;52.542;13.362;2024-01-07T11:07:28;14.63;;;5.03;;
37267;SDS011;23154;52.542;13.362;2024-01-07T11:12:19;15.80;;;5.65;;
37267;SDS011;23154;52.542;13.362;2024-01-07T11:14:46;16.92;;;5.35;;
37267;SDS011;23154;52.542;13.362;2024-01-07T11:17:51;17.33;;;5.50;;
37267;SDS011;23154;52.542;13.362;2024-01-07T11:20:18;16.40;;;5.20;;
37267;SDS011;23154;52.542;13.362;2024-01-07T11:22:45;17.48;;;6.00;;
37267;SDS011;23154;52.542;13.362;2024-01-07T11:25:27;16.95;;;5.40;;
37267;SDS011;23154;52.542;13.362;2024-01-07T11:27:55;15.90;;;5.75;;
37267;SDS011;23154;52.542;13.362;2024-01-07T11:30:22;14.48;;;4.90;;
37267;SDS011;23154;52.542;13.362;2024-01-07T11:32:48;15.15;;;5.20;;
37267;SDS011;23154;52.542;13.362;2024-01-07T11:35:50;16.58;;;6.22;;
37267;SDS011;23154;52.542;13.362;2024-01-07T11:38:08;18.08;;;6.18;;
37267;SDS011;23154;52.542;13.362;2024-01-07T11:40:34;17.20;;;5.45;;
37267;SDS011;23154;52.542;13.362;2024-01-07T11:43:00;17.73;;;5.65;;
37267;SDS011;23154;52.542;13.362;2024-01-07T11:45:29;16.92;;;5.32;;
37267;SDS011;23154;52.542;13.362;2024-01-07T11:47:56;15.20;;;5.20;;
37267;SDS011;23154;52.542;13.362;2024-01-07T11:50:22;15.57;;;4.93;;
37267;SDS011;23154;52.542;13.362;2024-01-07T11:52:48;20.08;;;5.13;;
37267;SDS011;23154;52.542;13.362;2024-01-07T11:55:15;15.88;;;5.32;;
37267;SDS011;23154;52.542;13.362;2024-01-07T11:57:41;16.35;;;5.80;;
37267;SDS011;23154;52.542;13.362;2024-01-07T12:00:08;16.73;;;5.22;;
37267;SDS011;23154;52.542;13.362;2024-01-07T12:02:34;14.85;;;5.15;;
37267;SDS011;23154;52.542;13.362;2024-01-07T12:05:00;22.63;;;6.95;;
37267;SDS011;23154;52.542;13.362;2024-01-07T12:07:26;14.00;;;5.47;;
37267;SDS011;23154;52.542;13.362;2024-01-07T12:09:56;17.48;;;6.30;;
37267;SDS011;23154;52.542;13.362;2024-01-07T12:12:23;15.60;;;5.97;;
37267;SDS011;23154;52.542;13.362;2024-01-07T12:14:49;15.45;;;5.13;;
37267;SDS011;23154;52.542;13.362;2024-01-07T12:17:19;16.45;;;5.72;;
37267;SDS011;23154;52.542;13.362;2024-01-07T12:19:45;19.75;;;5.78;;
37267;SDS011;23154;52.542;13.362;2024-01-07T12:22:11;18.65;;;5.55;;
37267;SDS011;23154;52.542;13.362;2024-01-07T12:24:37;16.65;;;6.45;;
37267;SDS011;23154;52.542;13.362;2024-01-07T12:27:06;15.70;;;6.03;;
37267;SDS011;23154;52.542;13.362;2024-01-07T12:29:33;26.40;;;10.00;;
37267;SDS011;23154;52.542;13.362;2024-01-07T12:31:59;16.90;;;5.55;;
37267;SDS011;23154;52.542;13.362;2024-01-07T12:34:27;15.45;;;5.38;;
37267;SDS011;23154;52.542;13.362;2024-01-07T12:36:53;16.98;;;5.18;;
37267;SDS011;23154;52.542;13.362;2024-01-07T12:39:20;20.50;;;5.65;;
37267;SDS011;23154;52.542;13.362;2024-01-07T12:41:46;14.95;;;5.47;;
37267;SDS011;23154;52.542;13.362;2024-01-07T12:44:12;15.13;;;5.43;;
37267;SDS011;23154;52.542;13.362;2024-01-07T12:46:38;15.40;;;5.03;;
37267;SDS011;23154;52.542;13.362;2024-01-07T12:49:04;17.58;;;5.10;;
37267;SDS011;23154;52.542;13.362;2024-01-07T12:51:30;15.13;;;4.47;;
37267;SDS011;23154;52.542;13.362;2024-01-07T12:53:56;15.55;;;4.53;;
37267;SDS011;23154;52.542;13.362;2024-01-07T12:56:24;15.70;;;4.80;;
37267;SDS011;23154;52.542;13.362;2024-01-07T12:58:50;12.38;;;4.68;;
37267;SDS011;23154;52.542;13.362;2024-01-07T13:01:16;16.00;;;4.90;;
37267;SDS011;23154;52.542;13.362;2024-01-07T13:03:45;15.30;;;4.80;;
37267;SDS011;23154;52.542;13.362;2024-01-07T13:06:14;13.52;;;4.65;;
37267;SDS011;23154;52.542;13.362;2024-01-07T13:08:40;15.70;;;4.30;;
37267;SDS011;23154;52.542;13.362;2024-01-07T13:11:06;14.20;;;4.43;;
37267;SDS011;23154;52.542;13.362;2024-01-07T13:13:33;12.32;;;4.40;;
37267;SDS011;23154;52.542;13.362;2024-01-07T13:16:00;12.38;;;3.92;;
37267;SDS011;23154;52.542;13.362;2024-01-07T13:18:27;16.88;;;5.05;;
37267;SDS011;23154;52.542;13.362;2024-01-07T13:20:53;13.10;;;4.57;;
37267;SDS011;23154;52.542;13.362;2024-01-07T13:23:19;10.63;;;3.60;;
37267;SDS011;23154;52.542;13.362;2024-01-07T13:25:45;12.75;;;4.35;;
37267;SDS011;23154;52.542;13.362;2024-01-07T13:28:11;14.05;;;4.65;;
37267;SDS011;23154;52.542;13.362;2024-01-07T13:30:37;11.77;;;3.97;;
37267;SDS011;23154;52.542;13.362;2024-01-07T13:33:05;13.20;;;3.70;;
37267;SDS011;23154;52.542;13.362;2024-01-07T13:35:31;12.40;;;3.90;;
37267;SDS011;23154;52.542;13.362;2024-01-07T13:37:57;14.52;;;4.45;;
37267;SDS011;23154;52.542;13.362;2024-01-07T13:40:23;12.98;;;4.15;;
37267;SDS011;23154;52.542;13.362;2024-01-07T13:42:49;13.32;;;4.60;;
37267;SDS011;23154;52.542;13.362;2024-01-07T13:45:18;14.20;;;4.35;;
37267;SDS011;23154;52.542;13.362;2024-01-07T13:47:45;13.27;;;4.50;;
37267;SDS011;23154;52.542;13.362;2024-01-07T13:50:12;17.98;;;5.53;;
37267;SDS011;23154;52.542;13.362;2024-01-07T13:52:38;18.35;;;5.47;;
37267;SDS011;23154;52.542;13.362;2024-01-07T13:55:04;20.13;;;5.72;;
37267;SDS011;23154;52.542;13.362;2024-01-07T13:57:33;16.25;;;4.68;;
37267;SDS011;23154;52.542;13.362;2024-01-07T14:00:01;16.35;;;5.05;;
37267;SDS011;23154;52.542;13.362;2024-01-07T14:02:33;15.05;;;3.83;;
37267;SDS011;23154;52.542;13.362;2024-01-07T14:04:59;12.82;;;4.03;;
37267;SDS011;23154;52.542;13.362;2024-01-07T14:07:25;12.68;;;4.10;;
37267;SDS011;23154;52.542;13.362;2024-01-07T14:09:51;12.18;;;3.70;;
37267;SDS011;23154;52.542;13.362;2024-01-07T14:12:17;15.05;;;4.53;;
37267;SDS011;23154;52.542;13.362;2024-01-07T14:14:43;20.13;;;5.15;;
37267;SDS011;23154;52.542;13.362;2024-01-07T14:17:09;16.65;;;4.80;;
37267;SDS011;23154;52.542;13.362;2024-01-07T14:19:37;12.10;;;3.92;;
37267;SDS011;23154;52.542;13.362;2024-01-07T14:22:03;14.60;;;4.32;;
37267;SDS011;23154;52.542;13.362;2024-01-07T14:24:29;12.77;;;3.83;;